createdAt,value
2023-03-10T00:00:27.144Z,75.01
2023-03-10T00:01:58.714Z,75.14
2023-03-10T00:03:30.441Z,75.03
2023-03-10T00:05:03.877Z,75.08
2023-03-10T00:06:35.657Z,73.90
2023-03-10T00:08:07.306Z,74.77
2023-03-10T00:09:38.927Z,74.46
2023-03-10T00:11:10.729Z,74.14
2023-03-10T00:12:42.452Z,73.84
2023-03-10T00:14:14.850Z,73.08
2023-03-10T00:15:46.522Z,73.27
2023-03-10T00:17:18.123Z,74.42
2023-03-10T00:18:49.788Z,75.63
2023-03-10T00:20:22.878Z,76.51
2023-03-10T00:21:54.461Z,75.14
2023-03-10T00:23:26.154Z,75.22
2023-03-10T00:24:57.958Z,75.53
2023-03-10T00:26:30.067Z,74.30
2023-03-10T00:33:45.560Z,74.59
2023-03-10T00:35:17.324Z,74.24
2023-03-10T00:36:50.261Z,73.90
2023-03-10T00:38:21.858Z,73.87
2023-03-10T00:39:53.564Z,74.36
2023-03-10T00:41:26.032Z,73.91
2023-03-10T00:42:59.457Z,73.70
2023-03-10T00:44:31.054Z,73.80
2023-03-10T00:46:02.778Z,74.06
2023-03-10T00:47:35.963Z,73.80
2023-03-10T00:49:07.766Z,73.56
2023-03-10T00:50:39.385Z,72.75
2023-03-10T00:52:12.581Z,73.29
2023-03-10T00:53:44.274Z,73.30
2023-03-10T00:55:16.018Z,73.03
2023-03-10T00:56:47.638Z,72.91
2023-03-10T00:58:19.349Z,73.25
2023-03-10T00:59:51.541Z,73.37
2023-03-10T01:01:24.440Z,73.33
2023-03-10T01:02:56.174Z,72.94
2023-03-10T01:04:27.858Z,72.86
2023-03-10T01:05:59.517Z,73.37
2023-03-10T01:07:32.470Z,73.37
2023-03-10T01:09:05.857Z,73.78
2023-03-10T01:10:37.436Z,74.40
2023-03-10T01:12:09.441Z,75.00
2023-03-10T01:13:41.207Z,75.53
2023-03-10T01:15:12.908Z,75.51
2023-03-10T01:16:44.526Z,74.77
2023-03-10T01:18:16.327Z,72.19
2023-03-10T01:19:47.898Z,71.98
2023-03-10T01:21:20.686Z,71.57
2023-03-10T01:22:53.639Z,72.03
2023-03-10T01:24:25.253Z,72.31
2023-03-10T01:25:56.918Z,70.94
2023-03-10T01:27:28.481Z,71.37
2023-03-10T01:29:00.149Z,71.40
2023-03-10T01:30:31.819Z,70.84
2023-03-10T01:32:03.682Z,70.78
2023-03-10T01:33:35.443Z,70.47
2023-03-10T01:35:07.818Z,71.33
2023-03-10T01:36:40.977Z,71.72
2023-03-10T01:38:14.022Z,70.44
2023-03-10T01:39:45.588Z,71.12
2023-03-10T01:41:17.442Z,70.48
2023-03-10T01:42:49.103Z,70.16
2023-03-10T01:44:20.865Z,70.55
2023-03-10T01:46:28.879Z,70.48
2023-03-10T01:48:00.597Z,69.16
2023-03-10T01:49:36.214Z,69.97
2023-03-10T01:51:07.810Z,70.05
2023-03-10T01:52:39.447Z,69.34
2023-03-10T01:54:14.503Z,70.59
2023-03-10T01:55:47.457Z,70.09
2023-03-10T01:57:20.608Z,68.83
2023-03-10T01:58:52.209Z,70.27
2023-03-10T02:00:24.100Z,70.75
2023-03-10T02:01:55.782Z,70.90
2023-03-10T02:03:28.252Z,70.26
2023-03-10T02:04:59.844Z,69.81
2023-03-10T02:06:31.499Z,68.68
2023-03-10T02:08:03.277Z,68.48
2023-03-10T02:09:38.404Z,68.16
2023-03-10T02:11:10.064Z,68.32
2023-03-10T02:12:43.495Z,68.75
2023-03-10T02:14:15.149Z,68.94
2023-03-10T02:15:46.805Z,69.16
2023-03-10T02:17:18.704Z,69.53
2023-03-10T02:18:50.331Z,70.21
2023-03-10T02:20:28.808Z,69.67
2023-03-10T02:22:03.843Z,70.25
2023-03-10T02:23:41.051Z,70.26
2023-03-10T02:25:22.833Z,70.45
2023-03-10T02:27:13.821Z,69.94
2023-03-10T02:28:45.595Z,69.91
2023-03-10T02:30:18.772Z,70.53
2023-03-10T02:31:50.956Z,69.84
2023-03-10T02:33:24.326Z,70.25
2023-03-10T02:34:56.368Z,69.86
2023-03-10T02:36:27.984Z,70.20
2023-03-10T02:37:59.670Z,69.96
2023-03-10T02:39:31.310Z,71.49
2023-03-10T02:41:02.906Z,71.17
2023-03-10T02:42:35.919Z,71.19
2023-03-10T02:44:08.665Z,71.61
2023-03-10T02:45:41.497Z,71.76
2023-03-10T02:47:13.086Z,71.62
2023-03-10T02:48:44.724Z,71.55
2023-03-10T02:50:16.695Z,72.12
2023-03-10T02:51:48.324Z,72.17
2023-03-10T02:53:20.854Z,73.14
2023-03-10T02:54:52.475Z,73.12
2023-03-10T02:56:24.267Z,73.93
2023-03-10T02:57:57.394Z,74.51
2023-03-10T02:59:29.004Z,75.28
2023-03-10T03:01:00.725Z,75.73
2023-03-10T03:02:32.922Z,75.81
2023-03-10T03:04:04.690Z,76.32
2023-03-10T03:05:36.512Z,76.89
2023-03-10T03:07:08.144Z,76.92
2023-03-10T03:08:39.785Z,77.03
2023-03-10T03:10:11.931Z,78.29
2023-03-10T03:11:43.518Z,79.33
2023-03-10T03:13:16.539Z,79.42
2023-03-10T03:14:48.926Z,80.89
2023-03-10T03:16:21.006Z,81.36
2023-03-10T03:17:54.305Z,81.91
2023-03-10T03:19:28.653Z,80.39
2023-03-10T03:21:04.707Z,81.51
2023-03-10T03:22:36.319Z,82.04
2023-03-10T03:24:08.313Z,82.66
2023-03-10T03:25:40.776Z,82.15
2023-03-10T03:27:13.009Z,83.65
2023-03-10T03:28:48.382Z,83.71
2023-03-10T03:30:22.284Z,83.79
2023-03-10T03:31:54.098Z,86.86
2023-03-10T03:33:25.745Z,86.21
2023-03-10T03:34:57.503Z,85.61
2023-03-10T03:36:29.137Z,85.54
2023-03-10T03:38:00.978Z,86.46
2023-03-10T03:39:32.630Z,85.28
2023-03-10T03:41:06.326Z,85.18
2023-03-10T03:42:37.946Z,85.88
2023-03-10T03:44:10.994Z,85.26
2023-03-10T03:45:42.794Z,86.77
2023-03-10T03:47:14.564Z,85.61
2023-03-10T03:48:46.264Z,86.98
2023-03-10T03:50:18.492Z,86.91
2023-03-10T03:51:50.159Z,88.08
2023-03-10T03:53:21.896Z,87.57
2023-03-10T03:54:53.552Z,87.68
2023-03-10T03:56:25.170Z,87.52
2023-03-10T03:57:56.917Z,87.47
2023-03-10T03:59:29.934Z,88.16
2023-03-10T04:01:01.576Z,87.10
2023-03-10T04:02:33.204Z,87.62
2023-03-10T04:04:05.075Z,87.07
2023-03-10T04:05:36.856Z,86.13
2023-03-10T04:07:08.496Z,87.38
2023-03-10T04:08:40.232Z,86.09
2023-03-10T04:10:13.433Z,86.36
2023-03-10T04:11:45.165Z,86.25
2023-03-10T04:13:16.809Z,86.96
2023-03-10T04:14:49.808Z,86.47
2023-03-10T04:16:21.688Z,86.79
2023-03-10T04:17:53.308Z,86.84
2023-03-10T04:19:25.008Z,86.97
2023-03-10T04:20:56.665Z,86.36
2023-03-10T04:22:28.299Z,86.84
2023-03-10T04:23:59.928Z,85.71
2023-03-10T04:25:31.587Z,85.60
2023-03-10T04:27:09.324Z,86.08
2023-03-10T04:28:40.982Z,86.11
2023-03-10T04:30:14.859Z,85.75
2023-03-10T04:31:55.804Z,85.88
2023-03-10T04:33:36.481Z,85.64
2023-03-10T04:35:09.040Z,85.48
2023-03-10T04:36:40.737Z,84.72
2023-03-10T04:38:13.503Z,85.51
2023-03-10T04:39:45.113Z,85.65
2023-03-10T04:41:17.710Z,86.02
2023-03-10T04:42:49.453Z,86.21
2023-03-10T04:44:30.458Z,85.80
2023-03-10T04:46:04.479Z,85.65
2023-03-10T04:47:36.232Z,85.16
2023-03-10T04:49:07.975Z,85.51
2023-03-10T04:50:39.610Z,85.13
2023-03-10T04:52:11.289Z,85.26
2023-03-10T04:53:42.939Z,83.84
2023-03-10T04:55:14.608Z,84.75
2023-03-10T04:56:46.185Z,84.38
2023-03-10T04:58:18.347Z,83.53
2023-03-10T04:59:50.042Z,84.58
2023-03-10T05:01:23.163Z,85.07
2023-03-10T05:02:54.825Z,83.60
2023-03-10T05:04:26.573Z,82.81
2023-03-10T05:05:58.298Z,83.68
2023-03-10T05:07:30.182Z,84.28
2023-03-10T05:09:04.615Z,84.84
2023-03-10T05:10:36.411Z,85.63
2023-03-10T05:12:08.361Z,85.96
2023-03-10T05:13:39.973Z,85.34
2023-03-10T05:15:12.415Z,85.77
2023-03-10T05:16:47.073Z,85.24
2023-03-10T05:18:19.551Z,85.26
2023-03-10T05:19:51.322Z,84.47
2023-03-10T05:21:23.070Z,84.56
2023-03-10T05:22:54.775Z,83.37
2023-03-10T05:24:26.461Z,83.65
2023-03-10T05:25:58.046Z,83.42
2023-03-10T05:27:29.728Z,84.31
2023-03-10T05:29:01.407Z,83.92
2023-03-10T05:30:33.152Z,83.58
2023-03-10T05:32:07.096Z,83.94
2023-03-10T05:33:38.860Z,83.21
2023-03-10T05:35:10.569Z,83.91
2023-03-10T05:36:42.449Z,82.77
2023-03-10T05:38:14.147Z,83.17
2023-03-10T05:39:45.846Z,83.02
2023-03-10T05:41:17.603Z,83.83
2023-03-10T05:42:50.362Z,83.24
2023-03-10T05:44:21.975Z,83.12
2023-03-10T05:45:56.767Z,83.86
2023-03-10T05:47:29.768Z,84.40
2023-03-10T05:49:01.386Z,83.17
2023-03-10T05:50:32.960Z,82.71
2023-03-10T05:52:05.158Z,84.65
2023-03-10T05:53:36.940Z,85.01
2023-03-10T05:55:08.954Z,83.50
2023-03-10T05:56:40.608Z,86.67
2023-03-10T05:58:12.230Z,85.28
2023-03-10T05:59:43.862Z,86.96
2023-03-10T06:01:15.791Z,85.87
2023-03-10T06:02:49.017Z,84.65
2023-03-10T06:04:20.866Z,85.54
2023-03-10T06:05:52.654Z,86.75
2023-03-10T06:07:24.400Z,86.23
2023-03-10T06:08:56.646Z,84.59
2023-03-10T06:10:28.376Z,85.25
2023-03-10T06:12:00.130Z,85.33
2023-03-10T06:13:31.921Z,87.60
2023-03-10T06:15:03.970Z,84.93
2023-03-10T06:16:35.677Z,85.38
2023-03-10T06:18:08.697Z,87.11
2023-03-10T06:19:40.328Z,85.05
2023-03-10T06:21:13.045Z,84.59
2023-03-10T06:22:44.786Z,83.96
2023-03-10T06:24:16.514Z,83.91
2023-03-10T06:25:55.532Z,83.98
2023-03-10T06:27:27.222Z,85.61
2023-03-10T06:28:58.964Z,84.85
2023-03-10T06:30:30.747Z,85.66
2023-03-10T06:32:02.472Z,84.77
2023-03-10T06:33:37.716Z,85.38
2023-03-10T06:35:11.968Z,86.72
2023-03-10T06:36:43.620Z,85.80
2023-03-10T06:38:15.363Z,86.14
2023-03-10T06:39:46.950Z,85.21
2023-03-10T06:41:18.660Z,86.26
2023-03-10T06:42:50.487Z,88.05
2023-03-10T06:44:22.201Z,85.38
2023-03-10T06:45:54.162Z,85.48
2023-03-10T06:47:25.831Z,86.88
2023-03-10T06:48:58.835Z,87.18
2023-03-10T06:50:31.628Z,89.34
2023-03-10T06:52:03.609Z,88.57
2023-03-10T06:53:35.641Z,89.41
2023-03-10T06:55:07.869Z,88.87
2023-03-10T06:56:39.513Z,87.72
2023-03-10T06:58:11.101Z,86.05
2023-03-10T06:59:42.746Z,85.76
2023-03-10T07:01:22.350Z,84.62
2023-03-10T07:02:54.342Z,83.86
2023-03-10T07:04:27.608Z,81.71
2023-03-10T07:05:59.712Z,81.56
2023-03-10T07:07:31.890Z,80.15
2023-03-10T07:09:03.783Z,80.17
2023-03-10T07:10:35.562Z,79.78
2023-03-10T07:12:07.660Z,78.73
2023-03-10T07:13:39.506Z,80.38
2023-03-10T07:15:11.892Z,80.41
2023-03-10T07:16:43.686Z,80.85
2023-03-10T07:18:15.514Z,81.45
2023-03-10T07:19:49.018Z,79.59
2023-03-10T07:21:21.000Z,79.78
2023-03-10T07:22:52.743Z,79.47
2023-03-10T07:24:24.458Z,79.37
2023-03-10T07:25:56.697Z,79.99
2023-03-10T07:27:28.351Z,79.95
2023-03-10T07:29:02.438Z,79.65
2023-03-10T07:30:34.192Z,80.80
2023-03-10T07:32:06.175Z,80.59
2023-03-10T07:33:38.815Z,81.26
2023-03-10T07:35:11.905Z,82.65
2023-03-10T07:36:43.607Z,84.00
2023-03-10T07:38:15.340Z,84.56
2023-03-10T07:39:47.211Z,85.01
2023-03-10T07:41:20.532Z,86.12
2023-03-10T07:42:52.571Z,86.93
2023-03-10T07:44:24.196Z,87.60
2023-03-10T07:45:55.924Z,87.96
2023-03-10T07:47:27.552Z,88.52
2023-03-10T07:49:04.069Z,88.69
2023-03-10T07:50:37.045Z,88.88
2023-03-10T07:52:08.744Z,89.08
2023-03-10T07:53:40.495Z,90.02
2023-03-10T07:55:12.337Z,89.19
2023-03-10T07:56:44.023Z,90.10
2023-03-10T07:58:15.775Z,89.67
2023-03-10T07:59:47.544Z,89.51
2023-03-10T08:01:20.349Z,88.99
2023-03-10T08:02:51.947Z,88.98
2023-03-10T08:04:23.701Z,87.91
2023-03-10T08:05:57.245Z,87.73
2023-03-10T08:07:28.979Z,87.53
2023-03-10T08:09:00.734Z,87.71
2023-03-10T08:10:32.438Z,88.27
2023-03-10T08:12:04.513Z,89.11
2023-03-10T08:13:36.652Z,88.23
2023-03-10T08:15:11.047Z,88.16
2023-03-10T08:16:42.775Z,88.78
2023-03-10T08:18:14.444Z,88.58
2023-03-10T08:19:46.077Z,89.10
2023-03-10T08:21:19.539Z,89.58
2023-03-10T08:22:52.527Z,90.09
2023-03-10T08:24:24.235Z,89.78
2023-03-10T08:25:55.874Z,90.52
2023-03-10T08:27:29.175Z,90.47
2023-03-10T08:29:00.879Z,89.99
2023-03-10T08:30:32.533Z,89.59
2023-03-10T08:32:04.619Z,90.44
2023-03-10T08:33:36.517Z,90.13
2023-03-10T08:35:09.049Z,90.44
2023-03-10T08:36:42.172Z,90.44
2023-03-10T08:38:13.808Z,90.00
2023-03-10T08:39:46.516Z,91.04
2023-03-10T08:41:19.392Z,90.51
2023-03-10T08:42:51.111Z,90.25
2023-03-10T08:44:22.826Z,89.31
2023-03-10T08:45:54.580Z,90.67
2023-03-10T08:47:28.875Z,90.21
2023-03-10T08:49:02.210Z,90.71
2023-03-10T08:50:33.955Z,91.33
2023-03-10T08:52:07.938Z,90.70
2023-03-10T08:53:39.586Z,89.69
2023-03-10T08:55:11.488Z,89.63
2023-03-10T08:56:43.126Z,89.24
2023-03-10T08:58:14.837Z,89.11
2023-03-10T08:59:46.481Z,88.53
2023-03-10T09:01:18.196Z,89.40
2023-03-10T09:02:49.878Z,88.98
2023-03-10T09:04:21.555Z,89.22
2023-03-10T09:05:53.608Z,89.14
2023-03-10T09:07:26.674Z,89.50
2023-03-10T09:08:58.487Z,88.67
2023-03-10T09:10:30.347Z,89.28
2023-03-10T09:12:02.097Z,89.13
2023-03-10T09:13:33.852Z,90.04
2023-03-10T09:15:06.165Z,90.21
2023-03-10T09:16:39.684Z,90.60
2023-03-10T09:18:12.555Z,91.08
2023-03-10T09:19:44.332Z,90.35
2023-03-10T09:21:16.773Z,89.72
2023-03-10T09:22:49.837Z,89.74
2023-03-10T09:24:21.737Z,89.62
2023-03-10T09:25:53.397Z,89.08
2023-03-10T09:27:25.053Z,88.36
2023-03-10T09:28:57.439Z,88.39
2023-03-10T09:30:29.178Z,87.94
2023-03-10T09:32:00.876Z,87.84
2023-03-10T09:33:32.714Z,87.50
2023-03-10T09:35:05.851Z,87.01
2023-03-10T09:36:37.820Z,87.03
2023-03-10T09:38:10.846Z,86.44
2023-03-10T09:39:42.870Z,86.61
2023-03-10T09:41:32.272Z,85.70
2023-03-10T09:43:05.987Z,86.11
2023-03-10T09:44:39.498Z,84.22
2023-03-10T09:46:15.085Z,84.81
2023-03-10T09:47:50.142Z,83.09
2023-03-10T09:49:23.271Z,82.65
2023-03-10T09:50:56.699Z,84.22
2023-03-10T09:52:29.084Z,83.13
2023-03-10T09:54:26.286Z,82.95
2023-03-10T09:55:57.913Z,81.92
2023-03-10T09:57:31.571Z,81.39
2023-03-10T09:59:07.359Z,81.80
2023-03-10T10:00:39.680Z,82.23
2023-03-10T10:02:16.001Z,82.62
2023-03-10T10:03:53.427Z,83.13
2023-03-10T10:05:34.642Z,82.67
2023-03-10T10:07:12.355Z,81.97
2023-03-10T10:08:54.664Z,82.62
2023-03-10T10:10:31.802Z,82.24
2023-03-10T10:12:10.899Z,83.23
2023-03-10T10:13:44.710Z,82.59
2023-03-10T10:15:18.677Z,83.01
2023-03-10T10:16:53.917Z,83.52
2023-03-10T10:18:28.631Z,83.36
2023-03-10T10:20:00.335Z,83.34
2023-03-10T10:21:42.278Z,83.65
2023-03-10T10:23:19.031Z,82.60
2023-03-10T10:25:01.444Z,82.95
2023-03-10T10:26:34.493Z,81.61
2023-03-10T10:28:07.458Z,82.08
2023-03-10T10:29:42.306Z,81.23
2023-03-10T10:31:16.039Z,81.65
2023-03-10T10:32:55.497Z,82.41
2023-03-10T10:34:27.260Z,81.95
2023-03-10T10:36:02.414Z,82.57
2023-03-10T10:37:39.462Z,81.61
2023-03-10T10:39:23.456Z,82.29
2023-03-10T10:41:00.176Z,82.58
2023-03-10T10:42:33.497Z,80.28
2023-03-10T10:44:07.165Z,81.64
2023-03-10T10:45:39.615Z,81.12
2023-03-10T10:47:24.379Z,82.40
2023-03-10T10:49:04.094Z,81.89
2023-03-10T10:50:36.092Z,82.36
2023-03-10T10:52:18.377Z,81.48
2023-03-10T10:53:50.382Z,81.48
2023-03-10T10:55:27.314Z,81.22
2023-03-10T10:56:59.730Z,81.39
2023-03-10T10:58:33.772Z,82.41
2023-03-10T11:00:18.532Z,81.56
2023-03-10T11:01:52.154Z,81.25
2023-03-10T11:03:26.409Z,81.99
2023-03-10T11:05:07.287Z,82.04
2023-03-10T11:06:39.148Z,81.72
2023-03-10T11:08:19.122Z,81.55
2023-03-10T11:09:50.757Z,80.69
2023-03-10T11:11:25.428Z,80.21
2023-03-10T11:13:00.367Z,81.22
2023-03-10T11:14:38.268Z,81.43
2023-03-10T11:16:13.686Z,81.83
2023-03-10T11:17:48.460Z,81.43
2023-03-10T11:19:25.892Z,82.11
2023-03-10T11:21:00.167Z,81.31
2023-03-10T11:22:38.910Z,81.13
2023-03-10T11:24:13.875Z,81.20
2023-03-10T11:25:47.529Z,81.62
2023-03-10T11:27:21.135Z,81.39
2023-03-10T11:28:53.756Z,81.01
2023-03-10T11:30:29.712Z,81.31
2023-03-10T11:32:04.654Z,80.82
2023-03-10T11:33:40.401Z,80.86
2023-03-10T11:35:19.005Z,80.56
2023-03-10T11:36:57.134Z,80.77
2023-03-10T11:38:34.383Z,80.32
2023-03-10T11:40:15.783Z,81.18
2023-03-10T11:41:49.127Z,81.14
2023-03-10T11:43:30.807Z,79.93
2023-03-10T11:45:05.160Z,80.54
2023-03-10T11:46:39.890Z,79.89
2023-03-10T11:48:22.471Z,80.70
2023-03-10T11:49:57.715Z,80.05
2023-03-10T11:51:31.284Z,80.52
2023-03-10T11:53:05.634Z,81.14
2023-03-10T11:54:39.508Z,81.12
2023-03-10T11:56:12.578Z,82.11
2023-03-10T11:57:45.735Z,81.41
2023-03-10T11:59:18.791Z,80.80
2023-03-10T12:00:52.784Z,80.80
2023-03-10T12:02:26.995Z,81.35
2023-03-10T12:04:02.415Z,81.77
2023-03-10T12:05:39.882Z,81.75
2023-03-10T12:07:22.680Z,82.05
2023-03-10T12:08:54.485Z,82.48
2023-03-10T12:10:26.611Z,83.46
2023-03-10T12:11:58.207Z,82.94
2023-03-10T12:13:42.007Z,82.75
2023-03-10T12:15:17.459Z,80.91
2023-03-10T12:16:51.995Z,81.55
2023-03-10T12:18:26.862Z,81.10
2023-03-10T12:20:10.632Z,81.44
2023-03-10T12:21:42.312Z,80.13
2023-03-10T12:23:30.223Z,79.24
2023-03-10T12:25:01.842Z,80.52
2023-03-10T12:27:02.039Z,80.06
2023-03-10T12:28:34.639Z,80.25
2023-03-10T12:30:39.337Z,80.57
2023-03-10T12:32:43.706Z,81.48
2023-03-10T12:34:20.235Z,81.78
2023-03-10T12:35:52.092Z,82.01
2023-03-10T12:37:23.803Z,81.31
2023-03-10T12:38:57.661Z,81.08
2023-03-10T12:40:47.816Z,80.54
2023-03-10T12:42:27.671Z,80.05
2023-03-10T12:43:59.407Z,80.77
2023-03-10T12:45:33.248Z,81.83
2023-03-10T12:47:15.820Z,81.04
2023-03-10T12:48:48.555Z,81.12
2023-03-10T12:50:36.335Z,81.69
2023-03-10T12:52:17.547Z,82.20
2023-03-10T12:53:52.698Z,83.83
2023-03-10T12:55:27.437Z,82.26
2023-03-10T12:57:01.697Z,82.51
2023-03-10T12:58:33.376Z,81.88
2023-03-10T13:00:06.819Z,82.65
2023-03-10T13:01:55.066Z,82.50
2023-03-10T13:03:37.668Z,83.40
2023-03-10T13:05:19.462Z,83.62
2023-03-10T13:06:56.452Z,82.87
2023-03-10T13:08:34.255Z,83.48
2023-03-10T13:10:06.444Z,83.77
2023-03-10T13:11:39.213Z,84.36
2023-03-10T13:13:14.579Z,84.53
2023-03-10T13:14:46.275Z,85.34
2023-03-10T13:16:18.954Z,86.04
2023-03-10T13:17:50.720Z,86.09
2023-03-10T13:19:32.011Z,85.63
2023-03-10T13:21:05.151Z,86.24
2023-03-10T13:22:40.489Z,86.49
2023-03-10T13:24:27.144Z,86.97
2023-03-10T13:25:59.619Z,86.83
2023-03-10T13:27:32.914Z,86.98
2023-03-10T13:29:04.611Z,87.13
2023-03-10T13:30:36.258Z,86.54
2023-03-10T13:32:18.239Z,86.75
2023-03-10T13:33:53.660Z,87.06
2023-03-10T13:35:29.770Z,86.71
2023-03-10T13:37:02.739Z,86.18
2023-03-10T13:38:35.712Z,86.55
2023-03-10T13:40:08.111Z,85.66
2023-03-10T13:41:40.282Z,86.13
2023-03-10T13:43:26.746Z,86.60
2023-03-10T13:44:58.333Z,86.38
2023-03-10T13:46:30.982Z,86.08
2023-03-10T13:48:04.013Z,86.01
2023-03-10T13:49:36.251Z,86.66
2023-03-10T13:51:15.126Z,86.90
2023-03-10T13:52:53.456Z,87.18
2023-03-10T13:54:27.371Z,86.34
2023-03-10T13:55:59.021Z,85.87
2023-03-10T13:57:35.618Z,86.65
2023-03-10T13:59:12.052Z,86.10
2023-03-10T14:00:50.425Z,85.83
2023-03-10T14:02:25.275Z,85.79
2023-03-10T14:03:57.842Z,86.16
2023-03-10T14:05:40.816Z,85.76
2023-03-10T14:07:13.845Z,86.29
2023-03-10T14:08:45.566Z,85.74
2023-03-10T14:10:20.269Z,85.49
2023-03-10T14:11:52.293Z,85.65
2023-03-10T14:13:43.276Z,85.48
2023-03-10T14:15:22.079Z,84.77
2023-03-10T14:16:54.430Z,84.80
2023-03-10T14:18:27.912Z,84.33
2023-03-10T14:19:59.595Z,83.31
2023-03-10T14:21:32.473Z,82.27
2023-03-10T14:23:26.546Z,82.81
2023-03-10T14:24:58.902Z,82.47
2023-03-10T14:26:32.569Z,82.08
2023-03-10T14:28:11.288Z,82.20
2023-03-10T14:29:51.565Z,82.42
2023-03-10T14:31:26.436Z,80.59
2023-03-10T14:33:01.285Z,81.99
2023-03-10T14:34:32.987Z,80.09
2023-03-10T14:36:12.099Z,79.64
2023-03-10T14:37:43.885Z,80.43
2023-03-10T14:39:17.923Z,80.38
2023-03-10T14:40:53.411Z,80.57
2023-03-10T14:42:32.405Z,80.46
2023-03-10T14:44:05.324Z,80.00
2023-03-10T14:45:38.938Z,81.43
2023-03-10T14:47:11.962Z,79.86
2023-03-10T14:48:45.279Z,80.03
2023-03-10T14:50:17.231Z,81.08
2023-03-10T14:51:51.216Z,80.90
2023-03-10T14:53:24.535Z,79.58
2023-03-10T14:54:56.153Z,80.00
2023-03-10T14:56:30.968Z,80.80
2023-03-10T14:58:04.672Z,81.76
2023-03-10T14:59:36.374Z,82.75
2023-03-10T15:01:08.240Z,83.55
2023-03-10T15:02:39.891Z,84.99
2023-03-10T15:04:29.507Z,84.53
2023-03-10T15:06:01.182Z,84.87
2023-03-10T15:07:32.833Z,83.99
2023-03-10T15:09:04.865Z,84.13
2023-03-10T15:10:39.506Z,84.34
2023-03-10T15:12:11.214Z,84.23
2023-03-10T15:13:44.355Z,83.02
2023-03-10T15:15:16.655Z,83.13
2023-03-10T15:16:48.346Z,83.75
2023-03-10T15:18:21.016Z,81.14
2023-03-10T15:19:52.644Z,81.90
2023-03-10T15:21:24.395Z,82.16
2023-03-10T15:22:56.467Z,81.28
2023-03-10T15:24:28.155Z,81.02
2023-03-10T15:26:11.531Z,81.50
2023-03-10T15:27:43.268Z,83.40
2023-03-10T15:29:16.804Z,84.03
2023-03-10T15:30:48.896Z,84.33
2023-03-10T15:32:20.614Z,84.49
2023-03-10T15:33:55.313Z,85.13
2023-03-10T15:35:29.169Z,84.55
2023-03-10T15:37:01.112Z,84.21
2023-03-10T15:38:32.905Z,83.17
2023-03-10T15:40:05.723Z,83.37
2023-03-10T15:41:37.750Z,83.39
2023-03-10T15:43:09.474Z,82.72
2023-03-10T15:44:43.777Z,82.69
2023-03-10T15:46:15.493Z,82.67
2023-03-10T15:47:47.384Z,81.95
2023-03-10T15:49:19.024Z,81.49
2023-03-10T15:50:50.784Z,81.00
2023-03-10T15:52:23.468Z,81.21
2023-03-10T15:53:55.122Z,79.72
2023-03-10T15:55:27.126Z,79.50
2023-03-10T15:56:58.884Z,80.06
2023-03-10T15:58:30.807Z,78.49
2023-03-10T16:00:04.456Z,76.81
2023-03-10T16:01:36.327Z,77.65
2023-03-10T16:03:08.030Z,76.61
2023-03-10T16:04:39.878Z,78.15
2023-03-10T16:06:12.616Z,77.56
2023-03-10T16:07:44.341Z,76.80
2023-03-10T16:09:16.014Z,75.37
2023-03-10T16:10:52.022Z,75.08
2023-03-10T16:12:23.641Z,76.82
2023-03-10T16:13:57.787Z,77.53
2023-03-10T16:15:30.798Z,78.95
2023-03-10T16:17:02.447Z,80.58
2023-03-10T16:18:34.338Z,80.41
2023-03-10T16:20:11.917Z,80.55
2023-03-10T16:21:45.464Z,80.31
2023-03-10T16:23:17.156Z,81.74
2023-03-10T16:24:48.953Z,81.44
2023-03-10T16:26:21.630Z,79.35
2023-03-10T16:27:53.287Z,78.71
2023-03-10T16:29:27.841Z,77.98
2023-03-10T16:31:02.424Z,77.99
2023-03-10T16:32:34.372Z,79.16
2023-03-10T16:34:06.109Z,77.36
2023-03-10T16:35:40.204Z,76.73
2023-03-10T16:37:11.871Z,77.27
2023-03-10T16:38:43.518Z,78.11
2023-03-10T16:40:15.446Z,76.73
2023-03-10T16:41:47.069Z,76.63
2023-03-10T16:43:19.677Z,76.57
2023-03-10T16:44:51.359Z,77.16
2023-03-10T16:46:25.717Z,76.08
2023-03-10T16:48:00.519Z,76.77
2023-03-10T16:49:32.369Z,74.91
2023-03-10T16:51:17.480Z,75.79
2023-03-10T16:52:57.945Z,75.54
2023-03-10T16:54:29.694Z,75.91
2023-03-10T16:56:04.035Z,75.93
2023-03-10T16:57:36.119Z,77.05
2023-03-10T16:59:07.866Z,76.75
2023-03-10T17:00:43.974Z,76.13
2023-03-10T17:02:17.076Z,75.18
2023-03-10T17:03:48.846Z,75.10
2023-03-10T17:05:20.657Z,75.77
2023-03-10T17:06:52.313Z,74.39
2023-03-10T17:08:24.481Z,75.42
2023-03-10T17:09:56.218Z,75.24
2023-03-10T17:11:28.997Z,75.45
2023-03-10T17:13:00.599Z,75.65
2023-03-10T17:14:32.250Z,81.00
2023-03-10T17:16:12.427Z,85.56
2023-03-10T17:17:45.557Z,89.68
2023-03-10T17:19:18.373Z,87.82
2023-03-10T17:20:50.090Z,87.71
2023-03-10T17:22:21.792Z,87.91
2023-03-10T17:23:53.577Z,87.76
2023-03-10T17:25:25.396Z,87.67
2023-03-10T17:26:57.056Z,88.42
2023-03-10T17:28:28.770Z,88.41
2023-03-10T17:30:00.747Z,87.45
2023-03-10T17:31:32.494Z,87.19
2023-03-10T17:33:05.718Z,86.97
2023-03-10T17:34:37.382Z,87.26
2023-03-10T17:36:19.947Z,87.59
2023-03-10T17:37:53.789Z,87.59
2023-03-10T17:39:29.703Z,87.14
2023-03-10T17:41:06.871Z,86.76
2023-03-10T17:42:40.975Z,86.15
2023-03-10T17:44:15.695Z,86.26
2023-03-10T17:45:56.008Z,86.27
2023-03-10T17:47:27.683Z,85.50
2023-03-10T17:49:00.888Z,86.44
2023-03-10T17:50:34.677Z,86.01
2023-03-10T17:52:06.701Z,85.76
2023-03-10T17:53:38.465Z,85.05
2023-03-10T17:55:10.997Z,84.62
2023-03-10T17:56:42.689Z,85.17
2023-03-10T17:58:27.014Z,85.25
2023-03-10T18:00:01.275Z,84.66
2023-03-10T18:01:34.076Z,85.06
2023-03-10T18:03:05.831Z,84.92
2023-03-10T18:04:40.964Z,84.35
2023-03-10T18:06:13.157Z,85.01
2023-03-10T18:07:44.953Z,85.34
2023-03-10T18:09:16.598Z,86.16
2023-03-10T18:10:49.215Z,85.63
2023-03-10T18:12:20.856Z,86.07
2023-03-10T18:13:52.547Z,86.65
2023-03-10T18:15:24.182Z,87.20
2023-03-10T18:16:55.801Z,87.48
2023-03-10T18:18:27.558Z,88.16
2023-03-10T18:20:01.164Z,87.39
2023-03-10T18:21:33.952Z,87.36
2023-03-10T18:23:05.704Z,87.63
2023-03-10T18:24:38.002Z,87.64
2023-03-10T18:26:10.292Z,87.23
2023-03-10T18:27:42.095Z,87.21
2023-03-10T18:29:14.211Z,87.26
2023-03-10T18:30:47.514Z,87.97
2023-03-10T18:32:22.001Z,88.13
2023-03-10T18:33:54.152Z,88.75
2023-03-10T18:35:27.167Z,88.46
2023-03-10T18:36:59.209Z,88.04
2023-03-10T18:38:30.824Z,88.58
2023-03-10T18:40:05.948Z,88.57
2023-03-10T18:41:37.579Z,88.70
2023-03-10T18:43:09.249Z,88.86
2023-03-10T18:44:44.898Z,88.57
2023-03-10T18:46:16.640Z,88.25
2023-03-10T18:47:48.447Z,87.11
2023-03-10T18:49:20.154Z,86.27
2023-03-10T18:50:53.144Z,86.73
2023-03-10T18:52:24.753Z,85.50
2023-03-10T18:53:56.463Z,85.92
2023-03-10T18:55:28.079Z,86.17
2023-03-10T18:57:01.616Z,84.23
2023-03-10T18:58:33.281Z,84.17
2023-03-10T19:00:07.495Z,82.26
2023-03-10T19:01:39.348Z,83.02
2023-03-10T19:03:13.214Z,82.29
2023-03-10T19:04:47.985Z,80.51
2023-03-10T19:06:21.014Z,81.76
2023-03-10T19:07:52.897Z,81.55
2023-03-10T19:09:24.597Z,81.00
2023-03-10T19:10:56.564Z,80.83
2023-03-10T19:12:28.579Z,81.38
2023-03-10T19:14:00.265Z,82.20
2023-03-10T19:15:32.008Z,81.09
2023-03-10T19:17:03.843Z,80.24
2023-03-10T19:18:35.976Z,80.19
2023-03-10T19:20:11.648Z,80.34
2023-03-10T19:21:44.731Z,82.13
2023-03-10T19:23:16.453Z,79.89
2023-03-10T19:24:48.110Z,81.31
2023-03-10T19:26:19.748Z,79.84
2023-03-10T19:27:51.456Z,79.92
2023-03-10T19:29:23.092Z,79.61
2023-03-10T19:30:54.958Z,79.62
2023-03-10T19:32:27.598Z,80.01
2023-03-10T19:33:59.252Z,79.63
2023-03-10T19:35:31.014Z,79.81
2023-03-10T19:37:07.034Z,79.86
2023-03-10T19:38:38.910Z,79.42
2023-03-10T19:40:14.605Z,78.83
2023-03-10T19:41:46.287Z,79.41
2023-03-10T19:43:17.955Z,78.88
2023-03-10T19:44:49.744Z,78.54
2023-03-10T19:46:21.521Z,77.82
2023-03-10T19:47:53.805Z,77.79
2023-03-10T19:49:30.134Z,76.88
2023-03-10T19:51:01.940Z,77.25
2023-03-10T19:52:39.017Z,77.47
2023-03-10T19:54:10.660Z,76.21
2023-03-10T19:55:45.487Z,75.76
2023-03-10T19:57:17.209Z,74.53
2023-03-10T19:58:49.328Z,74.95
2023-03-10T20:00:25.506Z,74.99
2023-03-10T20:02:01.581Z,75.71
2023-03-10T20:03:34.621Z,75.29
2023-03-10T20:05:07.392Z,75.23
2023-03-10T20:06:39.138Z,73.87
2023-03-10T20:08:12.240Z,74.27
2023-03-10T20:09:43.864Z,73.41
2023-03-10T20:11:15.632Z,74.28